createdAt,value
2022-12-23T00:02:12.093Z,28.10
2022-12-23T00:07:13.687Z,29.60
2022-12-23T00:12:34.142Z,30.20
2022-12-23T00:17:45.593Z,25.00
2022-12-23T00:23:05.551Z,16.50
2022-12-23T00:28:17.693Z,23.70
2022-12-23T00:33:23.278Z,15.80
2022-12-23T00:38:45.089Z,22.20
2022-12-23T00:43:46.705Z,23.90
2022-12-23T00:49:07.086Z,20.40
2022-12-23T00:54:08.746Z,20.20
2022-12-23T00:59:10.288Z,22.10
2022-12-23T01:04:35.552Z,23.90
2022-12-23T01:09:37.298Z,24.40
2022-12-23T01:14:39.098Z,25.90
2022-12-23T01:19:40.672Z,25.60
2022-12-23T01:24:42.215Z,26.80
2022-12-23T01:29:45.494Z,26.40
2022-12-23T01:34:47.021Z,26.10
2022-12-23T01:39:48.957Z,22.70
2022-12-23T01:45:31.147Z,22.00
2022-12-23T01:50:40.532Z,22.40
2022-12-23T01:56:16.511Z,22.50
2022-12-23T02:01:37.013Z,21.20
2022-12-23T02:07:03.291Z,24.00
2022-12-23T02:12:41.237Z,21.10
2022-12-23T02:18:13.740Z,21.30
2022-12-23T02:24:02.944Z,20.70
2022-12-23T02:29:37.712Z,24.00
2022-12-23T02:35:28.907Z,24.40
2022-12-23T02:41:07.986Z,23.40
2022-12-23T02:46:31.326Z,22.50
2022-12-23T02:51:44.081Z,21.80
2022-12-23T02:56:50.481Z,23.00
2022-12-23T03:01:54.573Z,22.90
2022-12-23T03:07:02.824Z,23.50
2022-12-23T03:12:22.187Z,24.60
2022-12-23T03:17:48.630Z,23.70
2022-12-23T03:23:05.814Z,24.30
2022-12-23T03:28:20.216Z,25.00
2022-12-23T03:33:34.425Z,24.60
2022-12-23T03:38:39.888Z,25.20
2022-12-23T03:43:51.277Z,24.60
2022-12-23T03:48:59.247Z,24.80
2022-12-23T03:54:11.471Z,27.10
2022-12-23T03:59:34.986Z,23.30
2022-12-23T04:05:01.628Z,22.90
2022-12-23T04:10:04.839Z,27.90
2022-12-23T04:15:12.518Z,26.90
2022-12-23T04:20:15.068Z,26.20
2022-12-23T04:25:18.122Z,27.00
2022-12-23T04:30:19.842Z,28.50
2022-12-23T04:35:22.040Z,28.80
2022-12-23T04:40:23.740Z,29.10
2022-12-23T04:45:25.286Z,30.20
2022-12-23T04:50:26.914Z,30.70
2022-12-23T04:55:28.573Z,30.40
2022-12-23T05:00:35.465Z,33.10
2022-12-23T05:05:44.456Z,34.10
2022-12-23T05:10:45.994Z,32.50
2022-12-23T05:15:53.595Z,34.00
2022-12-23T05:20:55.286Z,34.50
2022-12-23T05:25:57.227Z,34.60
2022-12-23T05:31:02.068Z,35.90
2022-12-23T05:36:04.825Z,34.70
2022-12-23T05:41:07.268Z,36.80
2022-12-23T05:46:08.889Z,35.60
2022-12-23T05:51:10.481Z,34.90
2022-12-23T05:56:12.034Z,34.30
2022-12-23T06:01:13.792Z,33.40
2022-12-23T06:06:15.352Z,30.10
2022-12-23T06:11:17.035Z,29.30
2022-12-23T06:16:18.744Z,26.10
2022-12-23T06:21:20.366Z,28.30
2022-12-23T06:26:22.393Z,26.10
2022-12-23T06:31:24.025Z,28.10
2022-12-23T06:36:25.748Z,27.10
2022-12-23T06:41:27.303Z,30.30
2022-12-23T06:46:28.911Z,28.70
2022-12-23T06:51:30.594Z,33.20
2022-12-23T06:56:35.260Z,33.90
2022-12-23T07:01:36.975Z,27.30
2022-12-23T07:06:39.225Z,37.80
2022-12-23T07:11:40.772Z,34.90
2022-12-23T07:16:42.429Z,32.20
2022-12-23T07:21:43.978Z,34.70
2022-12-23T07:26:45.497Z,37.50
2022-12-23T07:31:47.061Z,37.60
2022-12-23T07:36:48.628Z,36.20
2022-12-23T07:41:59.009Z,37.70
2022-12-23T07:47:11.006Z,36.20
2022-12-23T07:52:12.556Z,38.10
2022-12-23T07:57:14.104Z,57.80
2022-12-23T08:02:15.759Z,59.70
2022-12-23T08:07:17.554Z,57.80
2022-12-23T08:12:19.238Z,44.70
2022-12-23T08:17:25.133Z,34.40
2022-12-23T08:22:26.753Z,82.50
2022-12-23T08:27:28.326Z,74.00
2022-12-23T08:32:29.894Z,32.80
2022-12-23T08:37:31.427Z,29.60
2022-12-23T08:42:33.000Z,31.60
2022-12-23T08:47:34.597Z,32.50
2022-12-23T08:52:36.205Z,31.80
2022-12-23T08:57:37.897Z,33.30
2022-12-23T09:02:39.744Z,32.80
2022-12-23T09:07:41.531Z,34.40
2022-12-23T09:12:43.136Z,33.10
2022-12-23T09:17:44.695Z,29.00
2022-12-23T09:22:46.219Z,28.00
2022-12-23T09:27:47.839Z,28.60
2022-12-23T09:32:50.041Z,32.80
2022-12-23T09:37:51.633Z,46.30
2022-12-23T09:43:44.850Z,46.00
2022-12-23T09:49:00.156Z,54.60
2022-12-23T09:54:11.988Z,38.00
2022-12-23T09:59:27.704Z,44.40
2022-12-23T10:04:35.998Z,38.40
2022-12-23T10:09:42.091Z,30.70
2022-12-23T10:14:47.127Z,33.80
2022-12-23T10:19:50.219Z,34.30
2022-12-23T10:24:56.253Z,44.10
2022-12-23T10:30:42.443Z,35.90
2022-12-23T10:35:41.979Z,36.10
2022-12-23T10:41:08.797Z,31.50
2022-12-23T10:46:54.277Z,29.30
2022-12-23T10:52:11.354Z,33.90
2022-12-23T10:57:19.812Z,33.00
2022-12-23T11:02:42.878Z,38.20
2022-12-23T11:07:46.718Z,36.70
2022-12-23T11:12:52.635Z,34.30
2022-12-23T11:18:12.506Z,34.60
2022-12-23T11:23:28.807Z,30.90
2022-12-23T11:28:33.541Z,28.10
2022-12-23T11:34:05.167Z,36.20
2022-12-23T11:39:09.678Z,32.00
2022-12-23T11:44:20.375Z,31.00
2022-12-23T11:49:26.541Z,34.30
2022-12-23T11:54:31.033Z,32.80
2022-12-23T11:59:38.459Z,36.80
2022-12-23T12:04:42.068Z,30.90
2022-12-23T12:09:45.347Z,33.10
2022-12-23T12:14:51.909Z,32.00
2022-12-23T12:20:00.798Z,34.60
2022-12-23T12:25:41.015Z,35.50
2022-12-23T12:30:58.837Z,24.30
2022-12-23T12:36:15.222Z,32.30
2022-12-23T12:41:40.364Z,37.60
2022-12-23T12:47:01.855Z,38.10
2022-12-23T12:52:21.210Z,28.50
2022-12-23T12:57:24.295Z,39.80
2022-12-23T13:02:28.609Z,34.90
2022-12-23T13:07:57.970Z,42.60
2022-12-23T13:13:10.005Z,75.20
2022-12-23T13:18:33.060Z,73.70
2022-12-23T13:23:46.428Z,33.60
2022-12-23T13:29:21.126Z,34.70
2022-12-23T13:35:08.754Z,35.50
2022-12-23T13:40:35.317Z,41.00
2022-12-23T13:45:40.029Z,45.00
2022-12-23T13:50:52.963Z,36.80
2022-12-23T13:56:21.887Z,33.10
2022-12-23T14:01:35.949Z,50.90
2022-12-23T14:06:37.461Z,51.40
2022-12-23T14:11:39.127Z,42.30
2022-12-23T14:17:15.797Z,30.30
2022-12-23T14:22:38.612Z,29.40
2022-12-23T14:28:09.293Z,35.10
2022-12-23T14:33:13.901Z,37.00
2022-12-23T14:38:15.421Z,40.80
2022-12-23T14:43:26.270Z,34.40
2022-12-23T14:48:34.077Z,36.00
2022-12-23T14:53:59.410Z,54.20
2022-12-23T14:59:46.295Z,57.10
2022-12-23T15:04:55.307Z,45.30
2022-12-23T15:10:20.284Z,39.60
2022-12-23T15:15:27.701Z,45.20
2022-12-23T15:20:29.617Z,40.20
2022-12-23T15:25:34.767Z,51.50
2022-12-23T15:30:49.114Z,40.80
2022-12-23T15:35:51.481Z,30.60
2022-12-23T15:41:12.760Z,30.70
2022-12-23T15:46:26.800Z,23.60
2022-12-23T15:52:05.638Z,24.90
2022-12-23T15:57:01.190Z,29.20
2022-12-23T16:07:43.012Z,59.30
2022-12-23T16:12:44.852Z,63.50
2022-12-23T16:17:46.374Z,69.50
2022-12-23T16:22:58.355Z,62.20
2022-12-23T16:28:13.915Z,46.90
2022-12-23T16:33:49.599Z,94.40
2022-12-23T16:39:08.968Z,91.20
2022-12-23T16:44:10.890Z,85.40
2022-12-23T16:49:20.519Z,121.80
2022-12-23T16:54:22.494Z,82.80
2022-12-23T16:59:25.735Z,74.70
2022-12-23T17:04:27.476Z,69.20
2022-12-23T17:09:29.073Z,78.60
2022-12-23T17:14:30.998Z,46.90
2022-12-23T17:19:33.437Z,57.20
2022-12-23T17:24:35.187Z,51.40
2022-12-23T17:29:36.752Z,47.30
2022-12-23T17:34:39.161Z,50.30
2022-12-23T17:39:43.199Z,42.80
2022-12-23T17:44:44.722Z,50.40
2022-12-23T17:49:46.987Z,56.70
2022-12-23T17:54:50.656Z,56.60
2022-12-23T17:59:53.966Z,52.50
2022-12-23T18:04:55.930Z,45.80
2022-12-23T18:09:57.526Z,49.50
2022-12-23T18:15:00.263Z,55.70
2022-12-23T18:20:03.625Z,53.90
2022-12-23T18:25:05.794Z,63.60
2022-12-23T18:30:08.724Z,47.60
2022-12-23T18:35:27.111Z,39.10
2022-12-23T18:40:32.708Z,39.10
2022-12-23T18:45:37.371Z,39.40
2022-12-23T18:50:41.302Z,205.40
2022-12-23T18:55:44.093Z,206.40
2022-12-23T19:00:47.776Z,53.40
2022-12-23T19:05:51.536Z,53.50
2022-12-23T19:10:54.780Z,46.70
2022-12-23T19:15:56.365Z,38.10
2022-12-23T19:21:02.224Z,55.20
2022-12-23T19:26:05.638Z,75.10
2022-12-23T19:31:13.877Z,74.40
2022-12-23T19:36:21.993Z,84.80
2022-12-23T19:41:24.299Z,55.00
2022-12-23T19:46:26.182Z,53.60
2022-12-23T19:51:27.722Z,51.40
2022-12-23T19:56:29.973Z,42.10
2022-12-23T20:01:31.653Z,41.80
2022-12-23T20:06:37.793Z,43.50
2022-12-23T20:11:46.521Z,44.10
2022-12-23T20:16:48.920Z,39.80
2022-12-23T20:21:51.786Z,35.70
2022-12-23T20:26:53.294Z,27.40
2022-12-23T20:31:55.548Z,33.10
2022-12-23T20:36:57.079Z,33.40
2022-12-23T20:41:58.699Z,27.40
2022-12-23T20:47:00.364Z,29.30
2022-12-23T20:52:02.723Z,29.40
2022-12-23T20:57:05.326Z,27.00
2022-12-23T21:02:11.739Z,24.90
2022-12-23T21:07:13.456Z,22.10
2022-12-23T21:12:14.990Z,21.30
2022-12-23T21:17:16.554Z,10.70
2022-12-23T21:22:18.989Z,5.80
2022-12-23T21:27:24.242Z,3.80
2022-12-23T21:32:26.497Z,4.90
2022-12-23T21:37:37.196Z,5.30
2022-12-23T21:42:38.953Z,5.50
2022-12-23T21:47:40.480Z,6.40
2022-12-23T21:52:41.987Z,5.20
2022-12-23T21:57:44.203Z,4.80
2022-12-23T22:02:45.776Z,5.30
2022-12-23T22:07:47.472Z,5.90
2022-12-23T22:12:49.017Z,4.20
2022-12-23T22:17:51.099Z,5.60
2022-12-23T22:22:53.940Z,8.10
2022-12-23T22:27:55.428Z,16.10
2022-12-23T22:32:57.022Z,20.90
2022-12-23T22:37:58.685Z,28.70
2022-12-23T22:43:00.191Z,16.60
2022-12-23T22:48:01.749Z,12.30
2022-12-23T22:53:04.922Z,20.70
2022-12-23T22:58:07.081Z,16.80
2022-12-23T23:03:08.628Z,22.60
2022-12-23T23:08:11.785Z,30.40
2022-12-23T23:13:13.294Z,32.40
2022-12-23T23:18:15.786Z,17.20
2022-12-23T23:23:17.399Z,13.90
2022-12-23T23:28:18.943Z,11.60
2022-12-23T23:33:20.429Z,10.50
2022-12-23T23:38:23.003Z,10.70
2022-12-23T23:43:24.889Z,10.70
2022-12-23T23:48:26.466Z,13.50
2022-12-23T23:53:28.056Z,11.60
2022-12-23T23:58:29.929Z,7.20
